ROMMA est une association bénévole à but non lucratif. Votre soutien est indispensable : ADHERER à ROMMA ou FAIRE un DON

Peyrus - (26, Drôme)

Vercors Ouest (430 m)   Longitude: 05°06'28"E   Latitude: 44°54'41"N Station partenaire n°83
 

Détail journalier du     <<     >>

Température Precipitation Humidité Pression Vent Dir Rafale Dir. rafale Second capteur de température situé à 410 m
Heure (°C) (mm) (%) (hPa) (km/h) (km/h) (°C)
01:00 15.504510262SO13S14.4
02:00 15.104810251S8S11.7
03:00 14.305310251S6S10.0
04:00 14.4052102405S10.0
05:00 14.0052102403S9.4
06:00 14.305210241S10S9.4
07:00 13.9052102406S9.4
08:00 15.404910241S8S10.6
09:00 14.905910241NNO10NNO13.9
10:00 16.405710232NNO10NO16.1
11:00 17.505610234NNO15N18.3
12:00 18.805010233N15N20.0
13:00 19.705010223N13N21.1
14:00 20.504110223N13NNO21.1
15:00 21.104210212N13N22.8
16:00 21.804110205N16NNO22.2
17:00 21.604110195N16N23.3
18:00 20.904310191N11N21.7
19:00 20.7039101908N19.4
20:00 19.504110190015.6
21:00 17.704710201SE19NNE16.1
22:00 16.404910202S15SSE15.0
23:00 15.704810202SO10S15.0
minuit 15.604610202S13OSO14.4

Graphique du 20-04-2019

 

Serveur OMMA